Time;durP1;ratioP1;P1;durP2;ratioP2;P2;SDS_P1;SDS_P2;PMS_P1;PMS_P2;Temp;Humidity;BMP_temperature;BMP_pressure;BME280_temperature;BME280_humidity;BME280_pressure;Samples;Min_cycle;Max_cycle;Signal;HPM_P1;HPM_P2
2024/03/30 00:40:22;;;;;;;1.47;1.00;;;11.40;98.20;;;;;;4877412;29;20462;-82
2024/03/30 00:42:47;;;;;;;1.47;1.00;;;11.40;98.20;;;;;;4885483;29;20501;-83
2024/03/30 00:45:14;;;;;;;1.50;1.00;;;11.30;98.20;;;;;;4875681;29;20486;-82
2024/03/30 00:47:40;;;;;;;1.50;1.10;;;11.20;98.20;;;;;;4883233;29;20229;-82
2024/03/30 00:50:08;;;;;;;1.47;1.00;;;11.20;98.20;;;;;;4874459;29;20569;-81
2024/03/30 00:52:33;;;;;;;1.50;1.10;;;11.10;98.20;;;;;;4884679;29;20247;-81
2024/03/30 00:55:01;;;;;;;1.50;1.00;;;11.10;98.20;;;;;;4878262;29;20462;-82
2024/03/30 00:57:28;;;;;;;1.50;1.00;;;11.10;98.20;;;;;;4886309;29;20803;-82
2024/03/30 00:59:55;;;;;;;1.50;1.10;;;11.00;98.20;;;;;;4887200;29;20469;-83
2024/03/30 01:02:20;;;;;;;1.50;1.10;;;11.00;98.20;;;;;;4885897;29;20635;-81
2024/03/30 01:04:47;;;;;;;1.50;1.10;;;11.00;98.20;;;;;;4883932;29;20734;-81
2024/03/30 01:07:13;;;;;;;1.50;1.00;;;11.00;98.20;;;;;;4883398;29;20279;-82
2024/03/30 01:09:40;;;;;;;1.50;1.10;;;10.90;98.20;;;;;;4882115;29;20494;-84
2024/03/30 01:12:07;;;;;;;1.50;1.10;;;10.90;98.20;;;;;;4881783;29;20233;-82
2024/03/30 01:14:39;;;;;;;1.50;1.00;;;10.80;98.20;;;;;;4888575;29;20845;-82
2024/03/30 01:17:06;;;;;;;1.50;1.00;;;10.80;98.20;;;;;;4882167;29;20493;-82
2024/03/30 01:19:33;;;;;;;3.43;3.13;;;10.80;98.20;;;;;;4884138;29;20467;-83
2024/03/30 01:22:00;;;;;;;1.50;1.20;;;10.80;98.20;;;;;;4877572;29;20508;-82
2024/03/30 01:24:27;;;;;;;1.50;1.10;;;10.70;98.20;;;;;;4885427;29;20470;-82
2024/03/30 01:26:57;;;;;;;1.50;1.00;;;10.70;98.20;;;;;;4881265;29;20662;-80
2024/03/30 01:29:25;;;;;;;1.50;1.00;;;10.70;98.20;;;;;;4885851;29;20488;-82
2024/03/30 01:31:54;;;;;;;1.50;1.10;;;10.70;98.20;;;;;;4880402;29;20488;-82
2024/03/30 01:34:21;;;;;;;1.50;1.30;;;10.70;98.20;;;;;;4883375;29;20481;-81
2024/03/30 01:36:47;;;;;;;1.50;1.10;;;10.70;98.20;;;;;;4877015;29;20552;-81
2024/03/30 01:39:14;;;;;;;1.50;1.00;;;10.70;98.20;;;;;;4887804;29;20553;-82
2024/03/30 01:41:40;;;;;;;1.50;1.00;;;10.60;98.20;;;;;;4878292;29;20489;-82
2024/03/30 01:44:07;;;;;;;1.50;1.00;;;10.60;98.20;;;;;;4890604;29;20466;-81
2024/03/30 01:46:33;;;;;;;1.50;1.10;;;10.60;98.20;;;;;;4875973;29;20236;-81
2024/03/30 01:49:03;;;;;;;1.50;1.10;;;10.60;98.20;;;;;;4889520;29;20508;-82
2024/03/30 01:51:30;;;;;;;1.50;1.10;;;10.60;98.20;;;;;;4873967;29;21014;-81
2024/03/30 01:53:57;;;;;;;1.50;1.00;;;10.60;98.20;;;;;;4885201;29;20502;-81
2024/03/30 01:56:24;;;;;;;1.50;1.20;;;10.60;98.20;;;;;;4872612;29;20481;-82
2024/03/30 01:58:51;;;;;;;1.50;1.10;;;10.60;98.20;;;;;;4894016;29;20458;-82
2024/03/30 02:01:18;;;;;;;1.50;1.07;;;10.50;98.20;;;;;;4875353;29;20487;-81
2024/03/30 02:03:46;;;;;;;1.47;1.00;;;10.50;98.20;;;;;;4893254;29;20816;-82
2024/03/30 02:06:14;;;;;;;1.50;1.10;;;10.60;98.20;;;;;;4866047;29;20563;-82
2024/03/30 02:08:42;;;;;;;1.50;1.07;;;10.50;98.20;;;;;;4893351;29;20557;-83
2024/03/30 02:11:08;;;;;;;1.50;1.10;;;10.60;98.20;;;;;;4870934;29;20494;-82
2024/03/30 02:13:35;;;;;;;1.50;1.20;;;10.60;98.20;;;;;;4894391;29;21009;-82
2024/03/30 02:16:01;;;;;;;1.50;1.00;;;10.60;98.20;;;;;;4867699;29;20947;-83
2024/03/30 02:18:28;;;;;;;1.50;1.00;;;10.50;98.20;;;;;;4893389;29;20474;-82
2024/03/30 02:20:53;;;;;;;10.13;5.83;;;10.50;98.20;;;;;;4870411;29;20210;-82
2024/03/30 02:23:22;;;;;;;1.50;1.10;;;10.50;98.20;;;;;;4896594;29;20476;-82
2024/03/30 02:25:47;;;;;;;1.50;1.10;;;10.50;98.20;;;;;;4867574;29;20574;-83
2024/03/30 02:28:15;;;;;;;1.50;1.30;;;10.50;98.20;;;;;;4900155;29;20565;-82
2024/03/30 02:30:42;;;;;;;1.50;1.13;;;10.50;98.20;;;;;;4878885;29;20210;-83
2024/03/30 02:33:09;;;;;;;1.50;1.10;;;10.50;98.20;;;;;;4887220;29;20578;-81
2024/03/30 02:35:35;;;;;;;1.50;1.10;;;10.50;98.20;;;;;;4877800;29;21420;-82
2024/03/30 02:38:03;;;;;;;1.50;1.10;;;10.50;98.20;;;;;;4889299;29;20851;-82
2024/03/30 02:40:30;;;;;;;1.50;1.10;;;10.50;98.20;;;;;;4876546;29;20240;-82
2024/03/30 02:42:57;;;;;;;1.50;1.10;;;10.50;98.20;;;;;;4891955;29;20564;-82
2024/03/30 02:45:23;;;;;;;1.50;1.00;;;10.40;98.20;;;;;;4876282;29;20470;-82
2024/03/30 02:47:49;;;;;;;1.50;1.10;;;10.40;98.20;;;;;;4885582;29;20480;-82
2024/03/30 02:50:15;;;;;;;1.50;1.10;;;10.40;98.20;;;;;;4878060;29;20209;-82
2024/03/30 02:52:42;;;;;;;1.50;1.10;;;10.40;98.20;;;;;;4885137;29;21262;-82
2024/03/30 02:55:08;;;;;;;1.50;1.20;;;10.40;98.20;;;;;;4877982;29;20670;-82
2024/03/30 02:57:36;;;;;;;1.50;1.10;;;10.40;98.20;;;;;;4888833;29;20486;-82
2024/03/30 03:00:08;;;;;;;1.50;1.10;;;10.40;98.20;;;;;;4880595;29;20218;-82
2024/03/30 03:02:35;;;;;;;1.50;1.00;;;10.40;98.20;;;;;;4889792;29;20488;-81
2024/03/30 03:05:00;;;;;;;1.50;1.10;;;10.40;98.20;;;;;;4883428;29;20466;-81
2024/03/30 03:07:27;;;;;;;1.50;1.07;;;10.40;98.20;;;;;;4884503;29;21101;-82
2024/03/30 03:09:55;;;;;;;1.50;1.00;;;10.40;98.20;;;;;;4881585;29;20783;-82
2024/03/30 03:12:22;;;;;;;1.50;1.10;;;10.40;98.20;;;;;;4884497;29;20478;-82
2024/03/30 03:14:49;;;;;;;1.50;1.00;;;10.30;98.20;;;;;;4878618;29;20466;-81
2024/03/30 03:17:16;;;;;;;1.47;1.00;;;10.40;98.20;;;;;;4881991;29;20534;-82
2024/03/30 03:19:42;;;;;;;1.50;1.10;;;10.40;98.20;;;;;;4881357;29;20484;-83
2024/03/30 03:22:09;;;;;;;1.50;1.10;;;10.40;98.20;;;;;;4879784;29;20492;-82
2024/03/30 03:24:35;;;;;;;1.50;1.10;;;10.30;98.20;;;;;;4881168;29;20869;-82
2024/03/30 03:27:01;;;;;;;1.50;1.10;;;10.30;98.20;;;;;;4879246;29;20483;-82
2024/03/30 03:29:27;;;;;;;1.50;1.10;;;10.30;98.20;;;;;;4884788;29;20984;-81
2024/03/30 03:31:55;;;;;;;1.50;1.10;;;10.30;98.20;;;;;;4882928;29;20579;-82
2024/03/30 03:34:21;;;;;;;1.50;1.00;;;10.30;98.20;;;;;;4886449;29;20385;-82
2024/03/30 03:37:28;;;;;;;;;;;;;;;;;;;;;
2024/03/30 03:39:55;;;;;;;1.50;1.10;;;10.30;98.20;;;;;;4883835;29;20202;-83
2024/03/30 03:42:21;;;;;;;1.50;1.03;;;10.20;98.20;;;;;;4883614;29;20489;-82
2024/03/30 03:44:47;;;;;;;1.50;1.00;;;10.20;98.20;;;;;;4880463;29;20508;-83
2024/03/30 03:47:15;;;;;;;1.50;1.10;;;10.20;98.20;;;;;;4879810;29;20245;-83
2024/03/30 03:49:42;;;;;;;1.50;1.00;;;10.20;98.20;;;;;;4885861;29;21134;-82
2024/03/30 03:52:07;;;;;;;1.50;1.10;;;10.20;98.20;;;;;;4879881;29;20482;-81
2024/03/30 03:54:34;;;;;;;1.50;1.10;;;10.20;98.20;;;;;;4885101;29;20502;-81
2024/03/30 03:57:00;;;;;;;1.50;1.10;;;10.20;98.20;;;;;;4882858;29;20240;-81
2024/03/30 03:59:27;;;;;;;1.50;1.00;;;10.20;98.20;;;;;;4889161;29;20485;-81
2024/03/30 04:01:53;;;;;;;1.50;1.10;;;10.20;98.20;;;;;;4882684;29;20244;-83
2024/03/30 04:04:21;;;;;;;1.50;1.10;;;10.20;98.20;;;;;;4887922;29;20485;-81
2024/03/30 04:06:47;;;;;;;1.50;1.20;;;10.10;98.20;;;;;;4876576;29;20256;-82
2024/03/30 04:09:15;;;;;;;1.50;1.00;;;10.10;98.20;;;;;;4890379;29;20516;-82
2024/03/30 04:11:41;;;;;;;1.50;1.10;;;10.10;98.20;;;;;;4878494;29;20228;-81
2024/03/30 04:14:08;;;;;;;1.50;1.10;;;10.10;98.20;;;;;;4886686;29;20522;-82
2024/03/30 04:16:34;;;;;;;1.50;1.10;;;10.00;98.20;;;;;;4878553;29;20975;-80
2024/03/30 04:19:01;;;;;;;1.50;1.10;;;10.00;98.20;;;;;;4891666;29;20994;-84
2024/03/30 04:21:37;;;;;;;1.50;1.10;;;10.00;98.20;;;;;;4880034;29;20485;-82
2024/03/30 04:24:05;;;;;;;1.50;1.10;;;10.00;98.20;;;;;;4892083;29;20585;-85
2024/03/30 04:26:30;;;;;;;1.50;1.10;;;10.00;98.20;;;;;;4876583;29;20577;-81
2024/03/30 04:28:57;;;;;;;1.50;1.10;;;10.00;98.20;;;;;;4892213;29;20900;-84
2024/03/30 04:31:23;;;;;;;1.50;1.10;;;9.90;98.20;;;;;;4874218;29;20241;-84
2024/03/30 04:33:50;;;;;;;1.50;1.10;;;9.90;98.20;;;;;;4894166;29;20561;-83
2024/03/30 04:36:16;;;;;;;1.50;1.10;;;9.90;98.20;;;;;;4872056;29;20256;-83
2024/03/30 04:38:44;;;;;;;1.50;1.00;;;9.90;98.20;;;;;;4894732;29;20527;-82
2024/03/30 04:41:12;;;;;;;1.50;1.07;;;9.90;98.20;;;;;;4871911;29;20539;-82
2024/03/30 04:43:39;;;;;;;1.50;1.10;;;9.90;98.20;;;;;;4895473;29;20931;-85
2024/03/30 04:46:06;;;;;;;1.50;1.10;;;9.90;98.20;;;;;;4874225;29;20489;-83
2024/03/30 04:48:33;;;;;;;1.50;1.10;;;9.90;98.20;;;;;;4903179;29;20470;-83
2024/03/30 04:50:59;;;;;;;1.50;1.10;;;9.90;98.20;;;;;;4871930;29;20474;-83
2024/03/30 04:53:29;;;;;;;1.50;1.10;;;9.90;98.20;;;;;;4894449;29;20750;-84
2024/03/30 04:55:57;;;;;;;1.50;1.10;;;9.90;98.20;;;;;;4871070;29;20474;-82
2024/03/30 04:58:25;;;;;;;1.50;1.10;;;9.90;98.20;;;;;;4897491;29;20474;-84
2024/03/30 05:00:52;;;;;;;1.50;1.13;;;9.90;98.20;;;;;;4872848;29;20469;-83
2024/03/30 05:03:19;;;;;;;1.50;1.20;;;9.90;98.20;;;;;;4896242;29;20462;-84
2024/03/30 05:05:46;;;;;;;1.50;1.10;;;10.00;98.20;;;;;;4877055;29;20561;-84
2024/03/30 05:08:15;;;;;;;1.50;1.10;;;10.00;98.20;;;;;;4870910;29;20490;-83
2024/03/30 05:10:46;;;;;;;1.50;1.10;;;10.10;98.20;;;;;;4881244;29;21082;-84
2024/03/30 05:13:15;;;;;;;1.50;1.10;;;10.10;98.20;;;;;;4866290;29;20585;-83
2024/03/30 05:16:03;;;;;;;1.50;1.03;;;10.20;98.20;;;;;;4878825;29;20485;-84
2024/03/30 05:18:31;;;;;;;1.50;1.10;;;10.20;98.20;;;;;;4861434;29;20474;-83
2024/03/30 05:23:34;;;;;;;1.50;1.10;;;10.30;98.20;;;;;;4894692;27;20524;-84
2024/03/30 05:26:08;;;;;;;1.50;1.10;;;10.40;98.20;;;;;;4882240;29;21149;-83
2024/03/30 05:28:37;;;;;;;1.50;1.20;;;10.40;98.20;;;;;;4900699;29;20530;-85
2024/03/30 05:31:13;;;;;;;1.50;1.00;;;10.50;98.20;;;;;;4882770;29;20560;-81
2024/03/30 05:33:54;;;;;;;1.50;1.10;;;10.50;98.20;;;;;;4897821;29;21040;-79
2024/03/30 05:36:23;;;;;;;2.60;1.60;;;10.50;98.20;;;;;;4894668;29;20535;-79
2024/03/30 05:38:50;;;;;;;1.60;1.30;;;10.60;98.20;;;;;;4908979;29;20552;-83
2024/03/30 05:41:15;;;;;;;1.50;1.00;;;10.60;98.20;;;;;;4884780;29;20535;-81
2024/03/30 05:43:44;;;;;;;1.50;1.10;;;10.60;98.20;;;;;;4911479;29;20881;-82
2024/03/30 05:46:09;;;;;;;1.50;1.10;;;10.70;98.20;;;;;;4889402;29;20260;-81
2024/03/30 05:48:36;;;;;;;1.50;1.10;;;10.70;98.20;;;;;;4904754;29;20510;-83
2024/03/30 05:51:04;;;;;;;1.50;1.00;;;10.70;98.20;;;;;;4885955;29;20217;-82
2024/03/30 05:53:31;;;;;;;1.50;1.20;;;10.80;98.20;;;;;;4911576;29;20520;-83
2024/03/30 05:55:57;;;;;;;1.50;1.10;;;10.80;98.20;;;;;;4888009;29;20560;-83
2024/03/30 05:58:24;;;;;;;1.50;1.20;;;10.90;98.20;;;;;;4909900;29;20902;-84
2024/03/30 06:00:51;;;;;;;1.50;1.10;;;10.90;98.20;;;;;;4882928;29;20210;-82
2024/03/30 06:03:18;;;;;;;1.50;1.10;;;10.90;98.20;;;;;;4907592;29;20469;-82
2024/03/30 06:05:44;;;;;;;1.50;1.10;;;10.90;98.20;;;;;;4892642;29;20504;-81
2024/03/30 06:08:11;;;;;;;1.50;1.10;;;11.00;98.20;;;;;;4888846;29;20879;-80
2024/03/30 06:10:36;;;;;;;1.50;1.10;;;11.00;98.20;;;;;;4891543;29;20221;-80
2024/03/30 06:13:04;;;;;;;1.50;1.10;;;11.10;98.20;;;;;;4883255;29;20541;-79
2024/03/30 06:15:29;;;;;;;1.50;1.10;;;11.10;98.20;;;;;;4885038;29;20719;-79
2024/03/30 06:17:58;;;;;;;1.50;1.10;;;11.10;98.20;;;;;;4886171;29;20492;-80
2024/03/30 06:21:02;;;;;;;1.50;1.20;;;11.20;98.20;;;;;;4901416;29;20206;-82
2024/03/30 06:23:29;;;;;;;1.50;1.10;;;11.20;98.20;;;;;;4881544;29;20469;-81
2024/03/30 06:25:55;;;;;;;1.50;1.10;;;11.30;98.20;;;;;;4884039;29;20485;-81
2024/03/30 06:28:26;;;;;;;1.50;1.20;;;11.30;98.20;;;;;;4897631;29;20486;-80
2024/03/30 06:30:52;;;;;;;1.50;1.00;;;11.40;98.20;;;;;;4880978;29;20274;-81
2024/03/30 06:33:21;;;;;;;1.50;1.00;;;11.40;98.20;;;;;;4891711;29;20550;-81
2024/03/30 06:36:22;;;;;;;1.50;1.00;;;11.50;98.20;;;;;;4900535;29;20589;-81
2024/03/30 06:44:02;;;;;;;1.60;1.47;;;11.60;98.20;;;;;;4914313;29;20563;-82
2024/03/30 06:46:29;;;;;;;1.50;1.00;;;11.60;98.20;;;;;;4906672;29;20485;-81
2024/03/30 06:48:56;;;;;;;1.50;1.00;;;11.60;98.20;;;;;;4914274;29;20484;-81
2024/03/30 06:51:23;;;;;;;1.50;1.00;;;11.60;98.20;;;;;;4906269;29;20488;-80
2024/03/30 06:59:09;;;;;;;1.50;1.00;;;11.60;98.20;;;;;;4899366;29;20504;-80
2024/03/30 07:01:35;;;;;;;1.50;1.10;;;11.60;98.20;;;;;;4890440;29;20507;-80
2024/03/30 07:04:04;;;;;;;1.50;1.00;;;11.60;98.20;;;;;;4902874;29;20500;-82
2024/03/30 07:06:31;;;;;;;1.50;1.00;;;11.60;98.20;;;;;;4887082;29;20787;-81
2024/03/30 07:09:06;;;;;;;1.50;1.00;;;11.60;98.20;;;;;;4897115;29;20493;-85
2024/03/30 07:11:33;;;;;;;1.50;1.00;;;11.60;98.20;;;;;;4893794;29;20476;-83
2024/03/30 07:14:01;;;;;;;1.50;1.00;;;11.60;98.20;;;;;;4899956;29;20520;-82
2024/03/30 07:16:35;;;;;;;1.50;1.27;;;11.60;98.20;;;;;;4898152;29;20492;-82
2024/03/30 07:19:03;;;;;;;1.50;1.10;;;11.60;98.20;;;;;;4895188;29;20755;-80
2024/03/30 07:21:29;;;;;;;1.50;1.00;;;11.60;98.20;;;;;;4894358;29;20465;-81
2024/03/30 07:23:56;;;;;;;1.50;1.00;;;11.60;98.20;;;;;;4897625;29;20497;-80
2024/03/30 07:26:22;;;;;;;1.50;1.00;;;11.60;98.20;;;;;;4890347;29;20592;-83
2024/03/30 07:28:49;;;;;;;1.50;1.00;;;11.70;98.20;;;;;;4897809;29;20513;-83
2024/03/30 07:31:15;;;;;;;1.50;1.00;;;11.80;98.20;;;;;;4895433;29;20245;-81
2024/03/30 07:33:42;;;;;;;1.50;1.00;;;11.80;98.20;;;;;;4894277;29;20651;-83
2024/03/30 07:36:53;;;;;;;1.50;1.00;;;11.90;98.20;;;;;;4892181;29;20636;-81
2024/03/30 07:39:35;;;;;;;1.50;1.10;;;12.00;98.20;;;;;;4899708;29;20557;-82
2024/03/30 07:42:13;;;;;;;1.50;1.00;;;12.10;98.20;;;;;;4890881;29;20489;-83
2024/03/30 07:44:41;;;;;;;1.50;1.13;;;12.10;98.20;;;;;;4899609;29;20561;-80
2024/03/30 07:47:08;;;;;;;1.50;1.07;;;12.20;98.20;;;;;;4892968;29;20490;-82
2024/03/30 07:49:34;;;;;;;1.50;1.00;;;12.30;98.20;;;;;;4901787;29;20513;-83
2024/03/30 07:52:04;;;;;;;1.50;1.07;;;12.30;98.20;;;;;;4889188;29;20499;-80
2024/03/30 07:54:31;;;;;;;1.50;1.00;;;12.40;98.20;;;;;;4899409;29;21091;-81
2024/03/30 07:59:50;;;;;;;1.50;1.00;;;12.50;98.20;;;;;;4881273;29;20948;-81
2024/03/30 08:02:16;;;;;;;1.50;1.00;;;12.50;98.20;;;;;;4886738;29;20481;-81
2024/03/30 08:04:42;;;;;;;1.50;1.00;;;12.50;98.20;;;;;;4890785;29;20462;-81
2024/03/30 08:07:09;;;;;;;1.50;1.00;;;12.50;98.20;;;;;;4883011;29;20486;-82
2024/03/30 08:09:37;;;;;;;1.50;1.00;;;12.60;98.20;;;;;;4894114;29;20556;-80
2024/03/30 08:12:04;;;;;;;1.50;1.10;;;12.60;98.20;;;;;;4872181;29;20574;-80
2024/03/30 08:17:26;;;;;;;1.50;1.10;;;12.70;98.20;;;;;;4881604;29;21037;-81
2024/03/30 08:20:32;;;;;;;1.50;1.00;;;12.80;98.20;;;;;;4895780;29;20673;-85
2024/03/30 08:22:57;;;;;;;1.50;1.00;;;12.90;98.20;;;;;;4883254;29;21032;-81
2024/03/30 08:25:24;;;;;;;1.50;1.00;;;13.00;98.20;;;;;;4896350;29;20819;-82
2024/03/30 08:27:51;;;;;;;1.50;1.10;;;13.00;98.20;;;;;;4886992;29;20505;-81
2024/03/30 08:30:17;;;;;;;1.50;1.00;;;13.10;98.20;;;;;;4893542;29;20973;-82
2024/03/30 08:32:45;;;;;;;1.50;1.00;;;13.20;98.20;;;;;;4883656;29;20494;-84
2024/03/30 08:38:47;;;;;;;1.50;1.10;;;13.30;98.20;;;;;;4755356;30;20894;-81
2024/03/30 08:41:15;;;;;;;1.50;1.10;;;13.40;98.20;;;;;;4866259;29;20485;-81
2024/03/30 08:43:42;;;;;;;1.50;1.00;;;13.50;98.20;;;;;;4898805;29;20582;-82
2024/03/30 08:46:08;;;;;;;1.50;1.00;;;13.60;98.20;;;;;;4888800;29;20509;-81
2024/03/30 08:48:35;;;;;;;1.50;1.10;;;13.70;98.20;;;;;;4892292;29;20519;-83
2024/03/30 08:51:01;;;;;;;1.50;1.00;;;13.80;98.20;;;;;;4883141;29;20209;-82
2024/03/30 08:53:28;;;;;;;1.50;1.00;;;13.90;98.20;;;;;;4895609;29;20461;-82
2024/03/30 08:55:58;;;;;;;1.50;0.97;;;14.00;98.20;;;;;;4888907;29;20290;-83
2024/03/30 08:58:27;;;;;;;1.50;1.00;;;14.10;98.20;;;;;;4900388;29;20492;-81
2024/03/30 09:00:53;;;;;;;1.50;1.00;;;14.20;98.20;;;;;;4887471;29;20548;-82
2024/03/30 09:03:21;;;;;;;1.50;1.00;;;14.30;98.20;;;;;;4898602;29;20506;-82
2024/03/30 09:05:47;;;;;;;1.50;1.07;;;14.50;98.20;;;;;;4883904;29;20469;-83
2024/03/30 09:08:21;;;;;;;1.50;1.00;;;14.60;98.20;;;;;;4893958;29;20631;-81
2024/03/30 09:10:47;;;;;;;1.50;0.90;;;14.70;98.20;;;;;;4886108;29;20835;-82
2024/03/30 09:13:13;;;;;;;1.50;1.10;;;14.80;98.20;;;;;;4892096;29;20616;-81
2024/03/30 09:15:41;;;;;;;1.50;1.10;;;14.90;98.20;;;;;;4894034;29;20217;-80
2024/03/30 09:18:08;;;;;;;1.50;0.90;;;15.00;98.20;;;;;;4883054;29;20519;-82
2024/03/30 09:20:34;;;;;;;1.50;0.90;;;15.10;98.20;;;;;;4904137;29;20476;-82
2024/03/30 09:23:29;;;;;;;1.60;1.10;;;15.20;98.20;;;;;;4909286;29;20604;-81
2024/03/30 09:25:55;;;;;;;1.83;1.63;;;15.30;98.20;;;;;;4899618;29;20213;-83
2024/03/30 09:28:28;;;;;;;1.50;1.00;;;15.40;98.20;;;;;;4901419;29;20496;-81
2024/03/30 09:30:56;;;;;;;1.50;1.00;;;15.50;98.20;;;;;;4889595;29;20244;-82
2024/03/30 09:43:30;;;;;;;1.50;1.00;;;15.80;98.20;;;;;;4863135;29;20479;-80
2024/03/30 09:45:58;;;;;;;1.50;0.90;;;16.00;98.20;;;;;;4889204;29;20497;-82
2024/03/30 09:48:27;;;;;;;1.50;0.90;;;16.10;98.20;;;;;;4897831;29;20489;-81
2024/03/30 09:50:54;;;;;;;1.50;1.00;;;16.30;98.20;;;;;;4892406;29;20481;-81
2024/03/30 09:53:22;;;;;;;1.50;0.90;;;16.50;98.20;;;;;;4910988;29;20477;-81
2024/03/30 09:56:06;;;;;;;1.50;0.90;;;16.70;98.20;;;;;;4889244;29;20473;-80
2024/03/30 09:58:39;;;;;;;1.50;0.90;;;16.80;98.20;;;;;;4896062;29;20496;-80
2024/03/30 10:01:21;;;;;;;1.50;0.90;;;16.90;98.20;;;;;;4889345;29;20769;-81
2024/03/30 10:03:52;;;;;;;1.50;1.00;;;17.10;98.20;;;;;;4907334;29;20484;-82
2024/03/30 10:06:34;;;;;;;1.60;1.17;;;17.20;98.20;;;;;;4889659;29;20481;-81
2024/03/30 10:09:34;;;;;;;1.50;0.90;;;17.30;98.20;;;;;;4902987;29;20564;-81
2024/03/30 10:12:35;;;;;;;1.50;1.00;;;17.40;98.20;;;;;;4892286;29;20486;-80
2024/03/30 10:15:20;;;;;;;1.50;1.00;;;17.50;98.20;;;;;;4899855;29;20501;-80
2024/03/30 10:17:51;;;;;;;1.50;1.00;;;17.60;98.20;;;;;;4893155;29;20496;-78
2024/03/30 10:20:19;;;;;;;1.50;0.90;;;17.80;97.80;;;;;;4905791;29;20465;-81
2024/03/30 10:22:46;;;;;;;1.57;1.10;;;17.90;98.00;;;;;;4895349;29;20539;-81
2024/03/30 10:25:15;;;;;;;1.50;0.93;;;18.00;97.10;;;;;;4902228;29;20453;-80
2024/03/30 10:28:02;;;;;;;1.50;0.90;;;18.00;96.60;;;;;;4881974;29;20861;-80
2024/03/30 10:30:30;;;;;;;1.50;0.90;;;18.00;96.20;;;;;;4900959;29;20969;-79
2024/03/30 10:33:03;;;;;;;1.50;1.00;;;18.00;97.50;;;;;;4883150;29;20589;-80
2024/03/30 10:35:31;;;;;;;2.03;1.57;;;18.00;96.90;;;;;;4898367;29;20523;-80
2024/03/30 10:38:14;;;;;;;1.50;1.00;;;17.90;95.30;;;;;;4895394;29;20543;-81
2024/03/30 10:40:52;;;;;;;1.50;0.90;;;17.90;94.50;;;;;;4901101;29;20465;-79
2024/03/30 10:43:18;;;;;;;1.50;0.90;;;17.80;93.90;;;;;;4871027;29;20516;-80
2024/03/30 10:48:57;;;;;;;1.50;0.90;;;17.80;94.80;;;;;;4862233;29;20524;-82
2024/03/30 10:51:41;;;;;;;1.73;1.47;;;17.80;95.30;;;;;;4887913;29;20482;-81
2024/03/30 10:54:14;;;;;;;1.43;0.90;;;17.80;96.00;;;;;;4895211;29;20509;-80
2024/03/30 10:56:47;;;;;;;1.50;1.00;;;17.80;96.00;;;;;;4896031;29;20537;-81
2024/03/30 10:59:41;;;;;;;2.37;1.93;;;17.70;96.20;;;;;;4922390;23;21098;-80
2024/03/30 11:08:30;;;;;;;1.47;1.00;;;17.60;97.90;;;;;;4706246;29;21006;-80
2024/03/30 11:11:10;;;;;;;1.50;1.00;;;17.50;98.20;;;;;;4845779;29;20461;-81
2024/03/30 11:13:38;;;;;;;1.47;0.90;;;17.50;98.10;;;;;;4877592;29;20530;-79
2024/03/30 11:16:29;;;;;;;1.50;1.17;;;17.50;98.20;;;;;;4871293;29;20477;-79
2024/03/30 11:23:07;;;;;;;1.47;1.00;;;17.50;96.50;;;;;;4931447;29;20453;-81
2024/03/30 11:25:53;;;;;;;1.47;0.90;;;17.50;95.30;;;;;;4920527;29;21025;-80
2024/03/30 11:28:31;;;;;;;1.47;1.00;;;17.50;95.20;;;;;;4896304;29;20492;-80
2024/03/30 11:31:15;;;;;;;1.50;0.90;;;17.50;95.50;;;;;;4909894;29;20475;-82
2024/03/30 11:34:13;;;;;;;1.50;0.90;;;17.60;95.70;;;;;;4916608;29;20471;-81
2024/03/30 11:39:34;;;;;;;1.50;0.90;;;17.60;97.20;;;;;;5150166;23;21086;-80
2024/03/30 11:42:10;;;;;;;3.03;2.83;;;17.60;97.30;;;;;;4931282;28;20483;-80
2024/03/30 11:44:43;;;;;;;1.60;1.20;;;17.60;95.90;;;;;;4939180;29;20476;-79
2024/03/30 11:47:12;;;;;;;1.47;0.90;;;17.50;94.40;;;;;;4930247;28;20491;-80
2024/03/30 11:49:39;;;;;;;2.70;2.50;;;17.50;94.40;;;;;;4921594;29;20468;-79
2024/03/30 11:52:11;;;;;;;1.43;0.90;;;17.50;94.80;;;;;;4927991;28;20495;-79
2024/03/30 11:55:06;;;;;;;1.50;0.97;;;17.50;94.10;;;;;;4927755;29;20489;-79
2024/03/30 11:57:34;;;;;;;1.50;0.93;;;17.50;94.00;;;;;;4935529;28;20490;-80
2024/03/30 12:00:53;;;;;;;1.60;1.47;;;17.50;93.30;;;;;;4929757;29;20836;-83
2024/03/30 12:03:20;;;;;;;1.43;0.90;;;17.40;92.20;;;;;;4861852;29;20535;-79
2024/03/30 12:05:57;;;;;;;1.50;0.90;;;17.40;93.00;;;;;;4914762;29;20471;-80
2024/03/30 12:08:26;;;;;;;1.50;1.10;;;17.40;93.30;;;;;;4950410;28;21054;-81
2024/03/30 12:11:02;;;;;;;1.43;0.90;;;17.30;93.30;;;;;;4912384;28;20476;-80
2024/03/30 12:13:37;;;;;;;1.47;0.90;;;17.30;93.50;;;;;;4946656;28;20456;-80
2024/03/30 12:16:11;;;;;;;1.43;0.90;;;17.30;92.70;;;;;;4910179;28;20492;-82
2024/03/30 12:18:49;;;;;;;1.50;0.90;;;17.30;92.90;;;;;;4943768;28;20696;-81
2024/03/30 12:21:24;;;;;;;1.47;0.90;;;17.30;93.10;;;;;;4910538;29;20496;-82
2024/03/30 12:24:44;;;;;;;1.47;0.90;;;17.30;93.30;;;;;;4921597;29;20579;-82
2024/03/30 12:27:10;;;;;;;1.50;1.00;;;17.20;93.00;;;;;;4923568;28;20997;-82
2024/03/30 12:29:42;;;;;;;1.47;0.90;;;17.20;93.20;;;;;;4929104;29;20465;-81
2024/03/30 12:32:09;;;;;;;1.50;0.90;;;17.20;92.60;;;;;;4927324;28;20525;-82
2024/03/30 12:34:37;;;;;;;1.43;0.90;;;17.20;91.70;;;;;;4927665;29;20516;-81
2024/03/30 12:39:40;;;;;;;1.47;0.90;;;17.30;91.80;;;;;;1235398;27;20469;-80
2024/03/30 12:42:08;;;;;;;1.50;1.00;;;17.30;91.70;;;;;;4884675;29;21001;-80
2024/03/30 12:44:36;;;;;;;1.47;0.90;;;17.40;91.70;;;;;;4892360;29;20581;-82
2024/03/30 12:47:05;;;;;;;1.50;1.10;;;17.50;91.50;;;;;;4893581;29;20852;-80
2024/03/30 12:49:34;;;;;;;1.47;0.90;;;17.50;92.40;;;;;;4891633;29;20484;-82
2024/03/30 12:52:11;;;;;;;1.50;1.20;;;17.60;91.40;;;;;;4875251;29;20473;-82
2024/03/30 12:54:44;;;;;;;1.47;0.90;;;17.70;91.80;;;;;;4888015;29;20497;-81
2024/03/30 12:57:11;;;;;;;1.47;0.90;;;17.80;91.60;;;;;;4878843;23;20487;-81
2024/03/30 12:59:41;;;;;;;1.47;0.90;;;17.90;91.80;;;;;;4890733;29;20478;-81
2024/03/30 13:02:12;;;;;;;1.50;0.90;;;17.90;90.10;;;;;;4901722;29;20555;-78
2024/03/30 13:04:39;;;;;;;1.50;0.90;;;18.00;90.80;;;;;;4897912;29;20899;-80
2024/03/30 13:07:07;;;;;;;2.27;2.07;;;18.00;90.90;;;;;;4897157;29;20500;-81
2024/03/30 13:09:37;;;;;;;1.47;0.90;;;18.00;91.30;;;;;;4901782;29;21116;-80
2024/03/30 13:12:22;;;;;;;1.47;0.90;;;18.00;91.00;;;;;;4897596;29;21031;-81
2024/03/30 13:15:02;;;;;;;1.47;0.90;;;18.00;90.80;;;;;;4899403;29;21112;-81
2024/03/30 13:20:17;;;;;;;1.50;0.90;;;17.90;91.00;;;;;;4899152;29;20903;-81
2024/03/30 13:22:46;;;;;;;1.47;0.90;;;17.90;91.10;;;;;;4882532;29;20511;-82
2024/03/30 13:25:15;;;;;;;1.50;0.90;;;17.90;90.80;;;;;;4897190;29;20562;-80
2024/03/30 13:27:42;;;;;;;1.47;0.90;;;18.00;91.10;;;;;;4893002;29;20474;-80
2024/03/30 13:30:14;;;;;;;1.47;0.90;;;18.00;91.20;;;;;;4877673;29;20483;-80
2024/03/30 13:32:40;;;;;;;1.43;0.90;;;18.10;90.60;;;;;;4876353;29;20490;-81
2024/03/30 13:35:12;;;;;;;1.47;0.90;;;18.10;91.00;;;;;;4872423;29;20581;-81
2024/03/30 13:37:43;;;;;;;1.43;0.90;;;18.10;91.70;;;;;;4864728;29;20981;-80
2024/03/30 13:40:11;;;;;;;1.50;0.90;;;18.10;91.50;;;;;;4870766;29;20470;-82
2024/03/30 13:42:38;;;;;;;1.47;0.93;;;18.10;92.60;;;;;;4864203;29;20838;-81
2024/03/30 13:45:27;;;;;;;1.80;1.60;;;18.00;91.70;;;;;;4870435;29;20474;-81
2024/03/30 13:47:54;;;;;;;1.47;0.90;;;17.90;92.30;;;;;;4860617;29;21229;-81
2024/03/30 13:50:25;;;;;;;1.50;0.90;;;17.80;92.50;;;;;;4872064;29;20470;-81
2024/03/30 13:52:52;;;;;;;1.43;0.90;;;17.70;92.60;;;;;;4863612;29;20517;-79
2024/03/30 13:55:22;;;;;;;2.60;1.73;;;17.60;93.20;;;;;;4873420;29;20536;-80
2024/03/30 13:57:50;;;;;;;1.50;0.90;;;17.50;93.10;;;;;;4861452;29;20494;-81
2024/03/30 14:00:18;;;;;;;1.63;1.30;;;17.40;93.30;;;;;;4869133;29;20546;-78
2024/03/30 14:02:44;;;;;;;1.50;1.00;;;17.40;93.50;;;;;;4858872;29;20545;-80
2024/03/30 14:05:12;;;;;;;1.50;0.90;;;17.30;93.90;;;;;;4871723;29;20466;-79
2024/03/30 14:07:40;;;;;;;1.50;0.90;;;17.30;93.60;;;;;;4869448;29;20522;-80
2024/03/30 14:10:08;;;;;;;1.43;1.00;;;17.20;94.10;;;;;;4873912;29;21061;-80
2024/03/30 14:12:34;;;;;;;1.50;0.93;;;17.20;94.10;;;;;;4863845;29;20510;-80
2024/03/30 14:15:04;;;;;;;2.70;2.50;;;17.20;95.00;;;;;;4872737;29;20589;-80
2024/03/30 14:17:32;;;;;;;1.43;0.90;;;17.20;95.80;;;;;;4864834;29;20490;-81
2024/03/30 14:20:02;;;;;;;1.43;1.00;;;17.10;95.90;;;;;;4873502;29;20493;-81
2024/03/30 14:22:29;;;;;;;1.43;0.90;;;17.10;96.00;;;;;;4861328;29;20486;-80
2024/03/30 14:25:01;;;;;;;1.47;0.90;;;17.10;96.40;;;;;;4874350;29;20556;-80
2024/03/30 14:27:27;;;;;;;1.47;0.90;;;17.00;96.70;;;;;;4864775;29;20858;-79
2024/03/30 14:29:54;;;;;;;1.50;1.00;;;17.00;96.50;;;;;;4873283;29;20482;-81
2024/03/30 14:32:20;;;;;;;1.47;1.00;;;17.00;96.90;;;;;;4864206;29;20238;-81
2024/03/30 14:34:47;;;;;;;1.50;1.00;;;16.90;97.10;;;;;;4870627;29;20552;-80
2024/03/30 14:37:15;;;;;;;1.47;0.90;;;16.80;97.70;;;;;;4861302;29;20501;-79